Time;durP1;ratioP1;P1;durP2;ratioP2;P2;SDS_P1;SDS_P2;PMS_P1;PMS_P2;Temp;Humidity;BMP_temperature;BMP_pressure;BME280_temperature;BME280_humidity;BME280_pressure;Samples;Min_cycle;Max_cycle;Signal;HPM_P1;HPM_P2
2024/03/27 00:00:11;;;;;;;;;;;;;;;;;;4931662;29;19923;-85
2024/03/27 00:02:37;;;;;;;;;;;;;;;;;;4933269;29;19911;-85
2024/03/27 00:05:03;;;;;;;;;;;;;;;;;;4915349;29;19970;-84
2024/03/27 00:07:29;;;;;;;;;;;;;;;;;;4932783;29;19911;-87
2024/03/27 00:09:55;;;;;;;;;;;;;;;;;;4933369;29;19911;-86
2024/03/27 00:12:21;;;;;;;;;;;;;;;;;;4933360;29;19942;-88
2024/03/27 00:14:47;;;;;;;;;;;;;;;;;;4933319;29;19914;-87
2024/03/27 00:17:13;;;;;;;;;;;;;;;;;;4934082;29;20005;-87
2024/03/27 00:19:39;;;;;;;;;;;;;;;;;;4936228;29;20002;-87
2024/03/27 00:22:05;;;;;;;;;;;;;;;;;;4935231;29;19918;-86
2024/03/27 00:24:31;;;;;;;;;;;;;;;;;;4936194;29;20516;-84
2024/03/27 00:26:57;;;;;;;;;;;;;;;;;;4934622;29;19961;-84
2024/03/27 00:29:23;;;;;;;;;;;;;;;;;;4936176;29;19971;-84
2024/03/27 00:31:49;;;;;;;;;;;;;;;;;;4935586;29;20391;-84
2024/03/27 00:34:15;;;;;;;;;;;;;;;;;;4931390;29;19914;-83
2024/03/27 00:36:41;;;;;;;;;;;;;;;;;;4927765;29;20026;-84
2024/03/27 00:39:07;;;;;;;;;;;;;;;;;;4930245;29;19921;-85
2024/03/27 00:41:33;;;;;;;;;;;;;;;;;;4931843;29;20303;-85
2024/03/27 00:43:59;;;;;;;;;;;;;;;;;;4935903;29;20350;-85
2024/03/27 00:46:25;;;;;;;;;;;;;;;;;;4936259;29;19977;-84
2024/03/27 00:48:51;;;;;;;;;;;;;;;;;;4930430;29;19915;-84
2024/03/27 00:51:17;;;;;;;;;;;;;;;;;;4914960;29;19954;-84
2024/03/27 00:53:43;;;;;;;;;;;;;;;;;;4936717;29;19907;-84
2024/03/27 00:56:09;;;;;;;;;;;;;;;;;;4937870;29;19910;-86
2024/03/27 00:58:35;;;;;;;;;;;;;;;;;;4934155;29;19919;-86
2024/03/27 01:01:02;;;;;;;;;;;;;;;;;;4933388;29;19914;-84
2024/03/27 01:03:28;;;;;;;;;;;;;;;;;;4950775;29;19914;-84
2024/03/27 01:05:54;;;;;;;;;;;;;;;;;;4954522;29;19914;-84
2024/03/27 01:08:20;;;;;;;;;;;;;;;;;;4939144;29;19917;-84
2024/03/27 01:10:46;;;;;;;;;;;;;;;;;;4955288;29;19926;-82
2024/03/27 01:13:17;;;;;;;;;;;;;;;;;;4954485;29;19931;-85
2024/03/27 01:15:43;;;;;;;;;;;;;;;;;;4955896;28;19918;-88
2024/03/27 01:18:09;;;;;;;;;;;;;;;;;;4956609;28;19986;-86
2024/03/27 01:20:35;;;;;;;;;;;;;;;;;;4953478;29;20030;-87
2024/03/27 01:23:01;;;;;;;;;;;;;;;;;;4952236;29;19910;-85
2024/03/27 01:25:28;;;;;;;;;;;;;;;;;;4936279;29;19923;-85
2024/03/27 01:27:54;;;;;;;;;;;;;;;;;;4936285;29;19981;-85
2024/03/27 01:30:20;;;;;;;;;;;;;;;;;;4932613;29;19965;-85
2024/03/27 01:32:46;;;;;;;;;;;;;;;;;;4918397;29;19911;-85
2024/03/27 01:35:13;;;;;;;;;;;;;;;;;;4932226;29;19961;-84
2024/03/27 01:37:39;;;;;;;;;;;;;;;;;;4931368;29;19910;-85
2024/03/27 01:40:05;;;;;;;;;;;;;;;;;;4933957;29;20396;-85
2024/03/27 01:42:31;;;;;;;;;;;;;;;;;;4931442;29;19925;-85
2024/03/27 01:44:57;;;;;;;;;;;;;;;;;;4934081;29;19911;-85
2024/03/27 01:47:23;;;;;;;;;;;;;;;;;;4933945;29;20013;-85
2024/03/27 01:49:49;;;;;;;;;;;;;;;;;;4933903;29;20379;-84
2024/03/27 01:52:15;;;;;;;;;;;;;;;;;;4933858;29;20386;-85
2024/03/27 01:54:41;;;;;;;;;;;;;;;;;;4926722;29;19911;-84
2024/03/27 01:57:07;;;;;;;;;;;;;;;;;;4933553;29;19950;-85
2024/03/27 01:59:33;;;;;;;;;;;;;;;;;;4934351;29;20319;-85
2024/03/27 02:01:59;;;;;;;;;;;;;;;;;;4932911;29;19975;-86
2024/03/27 02:04:25;;;;;;;;;;;;;;;;;;4934179;29;20010;-86
2024/03/27 02:06:51;;;;;;;;;;;;;;;;;;4921525;29;19911;-85
2024/03/27 02:09:17;;;;;;;;;;;;;;;;;;4932028;29;19911;-85
2024/03/27 02:11:43;;;;;;;;;;;;;;;;;;4933600;29;19922;-84
2024/03/27 02:14:14;;;;;;;;;;;;;;;;;;4933217;29;20064;-85
2024/03/27 02:16:40;;;;;;;;;;;;;;;;;;4925488;29;19946;-84
2024/03/27 02:19:06;;;;;;;;;;;;;;;;;;4927205;29;19965;-86
2024/03/27 02:21:31;;;;;;;;;;;;;;;;;;4924444;29;19959;-86
2024/03/27 02:23:57;;;;;;;;;;;;;;;;;;4932150;29;19945;-84
2024/03/27 02:26:23;;;;;;;;;;;;;;;;;;4933081;29;19919;-84
2024/03/27 02:28:49;;;;;;;;;;;;;;;;;;4934152;29;19961;-84
2024/03/27 02:31:15;;;;;;;;;;;;;;;;;;4933823;29;20338;-88
2024/03/27 02:33:41;;;;;;;;;;;;;;;;;;4933702;29;20383;-85
2024/03/27 02:36:07;;;;;;;;;;;;;;;;;;4932966;29;19956;-85
2024/03/27 02:38:33;;;;;;;;;;;;;;;;;;4933779;29;19960;-85
2024/03/27 02:40:59;;;;;;;;;;;;;;;;;;4929095;29;20371;-84
2024/03/27 02:43:29;;;;;;;;;;;;;;;;;;4933476;29;19945;-85
2024/03/27 02:45:54;;;;;;;;;;;;;;;;;;4934168;29;19919;-91
2024/03/27 02:48:21;;;;;;;;;;;;;;;;;;4945888;29;19968;-93
2024/03/27 02:50:47;;;;;;;;;;;;;;;;;;4928269;29;19926;-92
2024/03/27 02:53:13;;;;;;;;;;;;;;;;;;4928548;29;20280;-93
2024/03/27 02:55:39;;;;;;;;;;;;;;;;;;4945470;29;19911;-93
2024/03/27 02:58:06;;;;;;;;;;;;;;;;;;4944449;29;19914;-92
2024/03/27 03:00:32;;;;;;;;;;;;;;;;;;4946327;29;19915;-90
2024/03/27 03:02:58;;;;;;;;;;;;;;;;;;4944876;29;19959;-92
2024/03/27 03:05:25;;;;;;;;;;;;;;;;;;4945128;29;19937;-94
2024/03/27 03:07:51;;;;;;;;;;;;;;;;;;4941573;29;19926;-94
2024/03/27 03:10:17;;;;;;;;;;;;;;;;;;4942613;29;20001;-95
2024/03/27 03:12:43;;;;;;;;;;;;;;;;;;4922530;29;20045;-93
2024/03/27 03:15:09;;;;;;;;;;;;;;;;;;4942774;29;19917;-93
2024/03/27 03:17:35;;;;;;;;;;;;;;;;;;4927523;29;19914;-93
2024/03/27 03:20:02;;;;;;;;;;;;;;;;;;4944234;29;19923;-91
2024/03/27 03:22:28;;;;;;;;;;;;;;;;;;4941899;29;19969;-93
2024/03/27 03:24:54;;;;;;;;;;;;;;;;;;4941966;29;20009;-94
2024/03/27 03:27:20;;;;;;;;;;;;;;;;;;4943208;29;19919;-93
2024/03/27 03:29:46;;;;;;;;;;;;;;;;;;4944018;29;19911;-92
2024/03/27 03:32:12;;;;;;;;;;;;;;;;;;4938299;29;19907;-94
2024/03/27 03:34:39;;;;;;;;;;;;;;;;;;4939887;29;19910;-91
2024/03/27 03:37:05;;;;;;;;;;;;;;;;;;4940736;29;20362;-92
2024/03/27 03:39:31;;;;;;;;;;;;;;;;;;4939996;29;19919;-95
2024/03/27 03:41:57;;;;;;;;;;;;;;;;;;4940773;29;19907;-92
2024/03/27 03:44:26;;;;;;;;;;;;;;;;;;4947700;29;19911;-93
2024/03/27 03:46:52;;;;;;;;;;;;;;;;;;4929982;29;19911;-94
2024/03/27 03:49:19;;;;;;;;;;;;;;;;;;4948918;29;19962;-91
2024/03/27 03:51:45;;;;;;;;;;;;;;;;;;4925857;29;19910;-91
2024/03/27 03:54:11;;;;;;;;;;;;;;;;;;4941165;29;19938;-89
2024/03/27 03:56:37;;;;;;;;;;;;;;;;;;4931613;29;19978;-87
2024/03/27 03:59:03;;;;;;;;;;;;;;;;;;4934534;29;19919;-88
2024/03/27 04:01:29;;;;;;;;;;;;;;;;;;4918344;29;19954;-88
2024/03/27 04:03:55;;;;;;;;;;;;;;;;;;4936279;29;19958;-88
2024/03/27 04:06:21;;;;;;;;;;;;;;;;;;4921928;29;19910;-87
2024/03/27 04:08:47;;;;;;;;;;;;;;;;;;4936791;29;20370;-88
2024/03/27 04:11:13;;;;;;;;;;;;;;;;;;4935447;29;19934;-87
2024/03/27 04:13:39;;;;;;;;;;;;;;;;;;4934545;29;19906;-89
2024/03/27 04:16:07;;;;;;;;;;;;;;;;;;4933901;29;19990;-87
2024/03/27 04:18:33;;;;;;;;;;;;;;;;;;4937050;29;20058;-88
2024/03/27 04:20:59;;;;;;;;;;;;;;;;;;4930642;29;20061;-87
2024/03/27 04:23:25;;;;;;;;;;;;;;;;;;4936307;29;19977;-87
2024/03/27 04:25:51;;;;;;;;;;;;;;;;;;4936644;29;20208;-88
2024/03/27 04:28:17;;;;;;;;;;;;;;;;;;4933788;29;19926;-89
2024/03/27 04:30:43;;;;;;;;;;;;;;;;;;4927857;29;19914;-88
2024/03/27 04:33:09;;;;;;;;;;;;;;;;;;4936260;29;19914;-88
2024/03/27 04:35:35;;;;;;;;;;;;;;;;;;4924944;29;19915;-87
2024/03/27 04:38:01;;;;;;;;;;;;;;;;;;4933235;29;19921;-88
2024/03/27 04:40:27;;;;;;;;;;;;;;;;;;4929352;29;20062;-88
2024/03/27 04:42:53;;;;;;;;;;;;;;;;;;4933794;29;19987;-87
2024/03/27 04:45:19;;;;;;;;;;;;;;;;;;4934566;29;20017;-88
2024/03/27 04:47:45;;;;;;;;;;;;;;;;;;4936361;29;19944;-88
2024/03/27 04:50:11;;;;;;;;;;;;;;;;;;4935966;29;19939;-88
2024/03/27 04:52:37;;;;;;;;;;;;;;;;;;4927912;29;19911;-87
2024/03/27 04:55:03;;;;;;;;;;;;;;;;;;4908416;29;20390;-88
2024/03/27 04:57:29;;;;;;;;;;;;;;;;;;4931226;29;19911;-87
2024/03/27 04:59:55;;;;;;;;;;;;;;;;;;4935524;29;20374;-87
2024/03/27 05:02:21;;;;;;;;;;;;;;;;;;4934838;29;19922;-89
2024/03/27 05:04:49;;;;;;;;;;;;;;;;;;4937610;29;19918;-93
2024/03/27 05:07:16;;;;;;;;;;;;;;;;;;4940987;29;19921;-92
2024/03/27 05:09:42;;;;;;;;;;;;;;;;;;4927724;29;19945;-93
2024/03/27 05:12:08;;;;;;;;;;;;;;;;;;4935158;29;19950;-90
2024/03/27 05:14:34;;;;;;;;;;;;;;;;;;4937330;29;20301;-93
2024/03/27 05:17:00;;;;;;;;;;;;;;;;;;4939556;29;19911;-93
2024/03/27 05:19:26;;;;;;;;;;;;;;;;;;4920604;29;19926;-94
2024/03/27 05:21:52;;;;;;;;;;;;;;;;;;4916745;29;19918;-94
2024/03/27 05:24:18;;;;;;;;;;;;;;;;;;4903146;29;19915;-92
2024/03/27 05:26:45;;;;;;;;;;;;;;;;;;4920294;29;19961;-93
2024/03/27 05:29:11;;;;;;;;;;;;;;;;;;4920385;29;19959;-93
2024/03/27 05:31:37;;;;;;;;;;;;;;;;;;4919225;29;19911;-92
2024/03/27 05:34:03;;;;;;;;;;;;;;;;;;4919493;29;19921;-92
2024/03/27 05:36:29;;;;;;;;;;;;;;;;;;4898672;29;19958;-92
2024/03/27 05:38:55;;;;;;;;;;;;;;;;;;4913221;29;19950;-93
2024/03/27 05:41:21;;;;;;;;;;;;;;;;;;4917357;29;19963;-91
2024/03/27 05:43:47;;;;;;;;;;;;;;;;;;4901816;29;19936;-91
2024/03/27 05:46:13;;;;;;;;;;;;;;;;;;4917748;29;19915;-93
2024/03/27 05:48:39;;;;;;;;;;;;;;;;;;4920972;29;19933;-92
2024/03/27 05:51:05;;;;;;;;;;;;;;;;;;4914245;29;19927;-93
2024/03/27 05:53:31;;;;;;;;;;;;;;;;;;4917774;29;19911;-94
2024/03/27 05:55:58;;;;;;;;;;;;;;;;;;4916830;29;19911;-91
2024/03/27 05:58:24;;;;;;;;;;;;;;;;;;4919121;29;19925;-92
2024/03/27 06:00:50;;;;;;;;;;;;;;;;;;4918778;29;20009;-92
2024/03/27 06:03:16;;;;;;;;;;;;;;;;;;4919291;29;20015;-93
2024/03/27 06:05:42;;;;;;;;;;;;;;;;;;4901380;29;19915;-93
2024/03/27 06:08:08;;;;;;;;;;;;;;;;;;4912803;29;19899;-92
2024/03/27 06:10:34;;;;;;;;;;;;;;;;;;4914551;29;20339;-93
2024/03/27 06:13:04;;;;;;;;;;;;;;;;;;4899678;29;19911;-92
2024/03/27 06:15:30;;;;;;;;;;;;;;;;;;4916005;29;19911;-93
2024/03/27 06:17:56;;;;;;;;;;;;;;;;;;4908933;29;19918;-91
2024/03/27 06:20:22;;;;;;;;;;;;;;;;;;4932796;29;19923;-93
2024/03/27 06:22:47;;;;;;;;;;;;;;;;;;4938868;29;19925;-93
2024/03/27 06:25:13;;;;;;;;;;;;;;;;;;4934343;29;19917;-91
2024/03/27 06:27:39;;;;;;;;;;;;;;;;;;4937992;29;20057;-93
2024/03/27 06:30:07;;;;;;;;;;;;;;;;;;4937849;29;19918;-94
2024/03/27 06:32:33;;;;;;;;;;;;;;;;;;4922580;29;19914;-93
2024/03/27 06:34:59;;;;;;;;;;;;;;;;;;4920060;29;20330;-92
2024/03/27 06:37:26;;;;;;;;;;;;;;;;;;4922819;29;19911;-93
2024/03/27 06:39:52;;;;;;;;;;;;;;;;;;4940885;28;19937;-92
2024/03/27 06:42:18;;;;;;;;;;;;;;;;;;4941309;29;20005;-91
2024/03/27 06:44:44;;;;;;;;;;;;;;;;;;4954108;28;20091;-90
2024/03/27 06:47:10;;;;;;;;;;;;;;;;;;4956695;28;19902;-90
2024/03/27 06:49:36;;;;;;;;;;;;;;;;;;4952745;28;19910;-90
2024/03/27 06:52:02;;;;;;;;;;;;;;;;;;4954494;28;19903;-89
2024/03/27 06:54:28;;;;;;;;;;;;;;;;;;4955525;28;19910;-90
2024/03/27 06:56:54;;;;;;;;;;;;;;;;;;4956189;28;19907;-91
2024/03/27 06:59:20;;;;;;;;;;;;;;;;;;4957126;28;19919;-90
2024/03/27 07:01:46;;;;;;;;;;;;;;;;;;4954633;28;19903;-90
2024/03/27 07:04:12;;;;;;;;;;;;;;;;;;4956997;28;19925;-91
2024/03/27 07:06:38;;;;;;;;;;;;;;;;;;4936578;28;19949;-90
2024/03/27 07:09:05;;;;;;;;;;;;;;;;;;4954712;28;19930;-90
2024/03/27 07:11:31;;;;;;;;;;;;;;;;;;4952346;28;19902;-90
2024/03/27 07:13:57;;;;;;;;;;;;;;;;;;4955262;28;19914;-90
2024/03/27 07:16:23;;;;;;;;;;;;;;;;;;4934817;29;19914;-92
2024/03/27 07:18:49;;;;;;;;;;;;;;;;;;4954176;28;19955;-91
2024/03/27 07:21:15;;;;;;;;;;;;;;;;;;4954739;28;20013;-90
2024/03/27 07:23:41;;;;;;;;;;;;;;;;;;4952199;28;19974;-91
2024/03/27 07:26:07;;;;;;;;;;;;;;;;;;4952165;28;19903;-86
2024/03/27 07:28:33;;;;;;;;;;;;;;;;;;4941102;29;19970;-88
2024/03/27 07:30:58;;;;;;;;;;;;;;;;;;4956249;28;19922;-86
2024/03/27 07:33:24;;;;;;;;;;;;;;;;;;4936695;29;19911;-87
2024/03/27 07:35:51;;;;;;;;;;;;;;;;;;4957631;29;19998;-86
2024/03/27 07:38:17;;;;;;;;;;;;;;;;;;4937270;29;20005;-87
2024/03/27 07:40:43;;;;;;;;;;;;;;;;;;4940879;29;19914;-85
2024/03/27 07:43:09;;;;;;;;;;;;;;;;;;4940734;29;20434;-86
2024/03/27 07:45:35;;;;;;;;;;;;;;;;;;4937882;29;19915;-86
2024/03/27 07:48:01;;;;;;;;;;;;;;;;;;4934746;29;19970;-86
2024/03/27 07:50:26;;;;;;;;;;;;;;;;;;4931874;29;19954;-86
2024/03/27 07:52:52;;;;;;;;;;;;;;;;;;4931065;29;19911;-86
2024/03/27 07:55:18;;;;;;;;;;;;;;;;;;4936023;29;20038;-85
2024/03/27 07:57:44;;;;;;;;;;;;;;;;;;4935159;29;19950;-85
2024/03/27 08:00:11;;;;;;;;;;;;;;;;;;4934251;29;19946;-85
2024/03/27 08:02:37;;;;;;;;;;;;;;;;;;4931438;29;20259;-85
2024/03/27 08:05:05;;;;;;;;;;;;;;;;;;4926239;29;19958;-86
2024/03/27 08:07:31;;;;;;;;;;;;;;;;;;4930701;29;20259;-87
2024/03/27 08:09:57;;;;;;;;;;;;;;;;;;4935170;29;19959;-86
2024/03/27 08:12:23;;;;;;;;;;;;;;;;;;4929123;29;19942;-85
2024/03/27 08:14:49;;;;;;;;;;;;;;;;;;4935067;29;19958;-85
2024/03/27 08:17:15;;;;;;;;;;;;;;;;;;4934948;29;19960;-85
2024/03/27 08:19:40;;;;;;;;;;;;;;;;;;4914411;29;20065;-88
2024/03/27 08:22:06;;;;;;;;;;;;;;;;;;4929071;29;19972;-87
2024/03/27 08:24:32;;;;;;;;;;;;;;;;;;4932853;29;19958;-85
2024/03/27 08:26:58;;;;;;;;;;;;;;;;;;4933482;29;19961;-87
2024/03/27 08:29:24;;;;;;;;;;;;;;;;;;4932499;29;20462;-85
2024/03/27 08:31:50;;;;;;;;;;;;;;;;;;4929061;29;20343;-86
2024/03/27 08:34:16;;;;;;;;;;;;;;;;;;4934731;29;20355;-87
2024/03/27 08:36:42;;;;;;;;;;;;;;;;;;4932236;29;20387;-87
2024/03/27 08:39:09;;;;;;;;;;;;;;;;;;4934851;29;19959;-86
2024/03/27 08:41:35;;;;;;;;;;;;;;;;;;4930739;29;20006;-85
2024/03/27 08:44:04;;;;;;;;;;;;;;;;;;4934379;29;20001;-86
2024/03/27 08:46:30;;;;;;;;;;;;;;;;;;4911507;29;19915;-87
2024/03/27 08:48:56;;;;;;;;;;;;;;;;;;4934468;29;20017;-86
2024/03/27 08:51:22;;;;;;;;;;;;;;;;;;4915683;29;19961;-86
2024/03/27 08:53:48;;;;;;;;;;;;;;;;;;4934150;29;19911;-86
2024/03/27 08:56:15;;;;;;;;;;;;;;;;;;4928731;29;20057;-85
2024/03/27 08:58:41;;;;;;;;;;;;;;;;;;4934130;29;19910;-84
2024/03/27 09:01:07;;;;;;;;;;;;;;;;;;4929354;29;19942;-86
2024/03/27 09:03:33;;;;;;;;;;;;;;;;;;4925856;29;19962;-86
2024/03/27 09:05:59;;;;;;;;;;;;;;;;;;4929207;29;19911;-81
2024/03/27 09:08:25;;;;;;;;;;;;;;;;;;4929076;29;19950;-81
2024/03/27 09:10:51;;;;;;;;;;;;;;;;;;4933695;29;19969;-82
2024/03/27 09:13:16;;;;;;;;;;;;;;;;;;4937992;29;19960;-83
2024/03/27 09:15:42;;;;;;;;;;;;;;;;;;4928454;29;19969;-84
2024/03/27 09:18:08;;;;;;;;;;;;;;;;;;4927243;29;19949;-82
2024/03/27 09:20:35;;;;;;;;;;;;;;;;;;4933009;29;19982;-84
2024/03/27 09:23:01;;;;;;;;;;;;;;;;;;4935092;29;20232;-86
2024/03/27 09:25:27;;;;;;;;;;;;;;;;;;4934459;29;19919;-86
2024/03/27 09:27:53;;;;;;;;;;;;;;;;;;4938763;29;19918;-85
2024/03/27 09:30:19;;;;;;;;;;;;;;;;;;4931559;29;20425;-85
2024/03/27 09:32:45;;;;;;;;;;;;;;;;;;4934830;29;19925;-86
2024/03/27 09:35:11;;;;;;;;;;;;;;;;;;4933944;29;19954;-86
2024/03/27 09:37:37;;;;;;;;;;;;;;;;;;4930349;29;19950;-84
2024/03/27 09:40:03;;;;;;;;;;;;;;;;;;4932874;29;19981;-84
2024/03/27 09:42:29;;;;;;;;;;;;;;;;;;4933870;29;19910;-84
2024/03/27 09:44:55;;;;;;;;;;;;;;;;;;4933895;29;20033;-83
2024/03/27 09:47:21;;;;;;;;;;;;;;;;;;4919082;29;19918;-81
2024/03/27 09:49:47;;;;;;;;;;;;;;;;;;4907592;29;19911;-82
2024/03/27 09:52:14;;;;;;;;;;;;;;;;;;4921265;29;20291;-81
2024/03/27 09:54:40;;;;;;;;;;;;;;;;;;4930751;29;19914;-80
2024/03/27 09:57:06;;;;;;;;;;;;;;;;;;4928633;29;20359;-81
2024/03/27 09:59:33;;;;;;;;;;;;;;;;;;4915622;29;20047;-80
2024/03/27 10:01:58;;;;;;;;;;;;;;;;;;4924785;29;19922;-81
2024/03/27 10:04:24;;;;;;;;;;;;;;;;;;4932906;29;19914;-80
2024/03/27 10:06:50;;;;;;;;;;;;;;;;;;4927597;29;20372;-79
2024/03/27 10:09:16;;;;;;;;;;;;;;;;;;4933270;29;19954;-80
2024/03/27 10:11:42;;;;;;;;;;;;;;;;;;4928028;29;20410;-81
2024/03/27 10:14:09;;;;;;;;;;;;;;;;;;4932171;29;20368;-81
2024/03/27 10:16:35;;;;;;;;;;;;;;;;;;4909830;29;19921;-80
2024/03/27 10:19:01;;;;;;;;;;;;;;;;;;4929372;29;20014;-81
2024/03/27 10:21:28;;;;;;;;;;;;;;;;;;4929885;29;19922;-81
2024/03/27 10:23:54;;;;;;;;;;;;;;;;;;4911083;29;19910;-81
2024/03/27 10:26:20;;;;;;;;;;;;;;;;;;4924499;29;20108;-82
2024/03/27 10:28:46;;;;;;;;;;;;;;;;;;4924481;29;19953;-83
2024/03/27 10:31:12;;;;;;;;;;;;;;;;;;4928119;29;19997;-82
2024/03/27 10:33:38;;;;;;;;;;;;;;;;;;4928544;29;19915;-82
2024/03/27 10:36:04;;;;;;;;;;;;;;;;;;4930122;29;19954;-82
2024/03/27 10:38:30;;;;;;;;;;;;;;;;;;4914657;29;19938;-82
2024/03/27 10:40:55;;;;;;;;;;;;;;;;;;4929674;29;19921;-82
2024/03/27 10:43:21;;;;;;;;;;;;;;;;;;4928134;29;19958;-83
2024/03/27 10:45:47;;;;;;;;;;;;;;;;;;4927534;29;20006;-83
2024/03/27 10:48:13;;;;;;;;;;;;;;;;;;4930227;29;19946;-83
2024/03/27 10:50:39;;;;;;;;;;;;;;;;;;4916026;29;19910;-89
2024/03/27 10:53:05;;;;;;;;;;;;;;;;;;4927668;29;20342;-88
2024/03/27 10:55:36;;;;;;;;;;;;;;;;;;4912521;29;19915;-89
2024/03/27 10:58:03;;;;;;;;;;;;;;;;;;4928921;29;19911;-88
2024/03/27 11:00:28;;;;;;;;;;;;;;;;;;4928753;29;19929;-88
2024/03/27 11:02:54;;;;;;;;;;;;;;;;;;4928559;29;19922;-89
2024/03/27 11:05:20;;;;;;;;;;;;;;;;;;4932815;29;20321;-89
2024/03/27 11:07:46;;;;;;;;;;;;;;;;;;4931885;29;19986;-89
2024/03/27 11:10:12;;;;;;;;;;;;;;;;;;4930397;29;20352;-89
2024/03/27 11:12:38;;;;;;;;;;;;;;;;;;4932691;29;20280;-89
2024/03/27 11:15:04;;;;;;;;;;;;;;;;;;4932093;29;20370;-89
2024/03/27 11:17:31;;;;;;;;;;;;;;;;;;4915459;29;19962;-89
2024/03/27 11:19:57;;;;;;;;;;;;;;;;;;4928406;29;19923;-89
2024/03/27 11:22:23;;;;;;;;;;;;;;;;;;4930313;29;19921;-89
2024/03/27 11:24:49;;;;;;;;;;;;;;;;;;4933624;29;19911;-88
2024/03/27 11:27:15;;;;;;;;;;;;;;;;;;4933671;29;19914;-89
2024/03/27 11:29:44;;;;;;;;;;;;;;;;;;4933731;29;20324;-89
2024/03/27 11:32:10;;;;;;;;;;;;;;;;;;4925456;29;20191;-90
2024/03/27 11:34:41;;;;;;;;;;;;;;;;;;4932658;29;19922;-90
2024/03/27 11:37:08;;;;;;;;;;;;;;;;;;4931291;29;19911;-90
2024/03/27 11:39:34;;;;;;;;;;;;;;;;;;4916647;29;20266;-90
2024/03/27 11:42:00;;;;;;;;;;;;;;;;;;4932964;29;19987;-89
2024/03/27 11:44:26;;;;;;;;;;;;;;;;;;4915780;29;19910;-90
2024/03/27 11:46:51;;;;;;;;;;;;;;;;;;4925315;29;19957;-90
2024/03/27 11:49:17;;;;;;;;;;;;;;;;;;4933133;29;19954;-90
2024/03/27 11:51:43;;;;;;;;;;;;;;;;;;4908472;29;19915;-90
2024/03/27 11:54:09;;;;;;;;;;;;;;;;;;4932894;29;20465;-90
2024/03/27 11:56:35;;;;;;;;;;;;;;;;;;4929290;29;20022;-89
2024/03/27 11:59:02;;;;;;;;;;;;;;;;;;4933365;29;19911;-89
2024/03/27 12:01:28;;;;;;;;;;;;;;;;;;4932103;29;20034;-89
2024/03/27 12:03:53;;;;;;;;;;;;;;;;;;4915912;29;19964;-89
2024/03/27 12:06:19;;;;;;;;;;;;;;;;;;4930047;29;19915;-88
2024/03/27 12:08:45;;;;;;;;;;;;;;;;;;4909436;29;19914;-88
2024/03/27 12:11:13;;;;;;;;;;;;;;;;;;4923331;29;19957;-87
2024/03/27 12:13:39;;;;;;;;;;;;;;;;;;4932114;29;19921;-86
2024/03/27 12:16:05;;;;;;;;;;;;;;;;;;4934065;29;19919;-87
2024/03/27 12:18:31;;;;;;;;;;;;;;;;;;4933601;29;19990;-87
2024/03/27 12:20:56;;;;;;;;;;;;;;;;;;4933385;29;20332;-87
2024/03/27 12:23:23;;;;;;;;;;;;;;;;;;4935460;29;19946;-86
2024/03/27 12:25:49;;;;;;;;;;;;;;;;;;4929235;29;20398;-87
2024/03/27 12:28:16;;;;;;;;;;;;;;;;;;4937032;29;19915;-86
2024/03/27 12:30:43;;;;;;;;;;;;;;;;;;4946883;29;19983;-86
2024/03/27 12:33:09;;;;;;;;;;;;;;;;;;4949216;29;19934;-87
2024/03/27 12:35:36;;;;;;;;;;;;;;;;;;4951396;29;19922;-89
2024/03/27 12:38:01;;;;;;;;;;;;;;;;;;4937657;29;19934;-87
2024/03/27 12:40:27;;;;;;;;;;;;;;;;;;4938946;29;19914;-85
2024/03/27 12:42:56;;;;;;;;;;;;;;;;;;4938767;29;19969;-86
2024/03/27 12:45:22;;;;;;;;;;;;;;;;;;4940224;29;19942;-85
2024/03/27 12:47:48;;;;;;;;;;;;;;;;;;4943293;29;20324;-87
2024/03/27 12:50:15;;;;;;;;;;;;;;;;;;4949512;29;19979;-89
2024/03/27 12:52:42;;;;;;;;;;;;;;;;;;4954091;29;19919;-88
2024/03/27 12:55:08;;;;;;;;;;;;;;;;;;4941738;29;19911;-86
2024/03/27 12:57:34;;;;;;;;;;;;;;;;;;4937635;29;20024;-87
2024/03/27 13:00:00;;;;;;;;;;;;;;;;;;4937467;29;19911;-85
2024/03/27 13:02:26;;;;;;;;;;;;;;;;;;4959274;23;19930;-50
2024/03/27 13:04:52;;;;;;;;;;;;;;;;;;4959746;28;20017;-51
2024/03/27 13:07:18;;;;;;;;;;;;;;;;;;4952773;29;19949;-50
2024/03/27 13:09:44;;;;;;;;;;;;;;;;;;4947986;28;19954;-50
2024/03/27 13:12:10;;;;;;;;;;;;;;;;;;4956340;28;19999;-49
2024/03/27 13:14:36;;;;;;;;;;;;;;;;;;4955612;28;20021;-50
2024/03/27 13:17:03;;;;;;;;;;;;;;;;;;4948477;28;20024;-50
2024/03/27 13:19:29;;;;;;;;;;;;;;;;;;4950560;29;20331;-50
2024/03/27 13:21:55;;;;;;;;;;;;;;;;;;4947515;29;19965;-50
2024/03/27 13:24:20;;;;;;;;;;;;;;;;;;4949284;28;19954;-50
2024/03/27 13:26:46;;;;;;;;;;;;;;;;;;4950953;29;19958;-50
2024/03/27 13:29:12;;;;;;;;;;;;;;;;;;4932784;29;19961;-50
2024/03/27 13:31:38;;;;;;;;;;;;;;;;;;4949703;29;20357;-50
2024/03/27 13:34:05;;;;;;;;;;;;;;;;;;4952452;29;20770;-50
2024/03/27 13:36:31;;;;;;;;;;;;;;;;;;4946511;29;20509;-50
2024/03/27 13:38:58;;;;;;;;;;;;;;;;;;4951067;29;19961;-50
2024/03/27 13:41:24;;;;;;;;;;;;;;;;;;4929827;28;20326;-50
2024/03/27 13:43:49;;;;;;;;;;;;;;;;;;4941627;29;20069;-49
2024/03/27 13:46:15;;;;;;;;;;;;;;;;;;4944304;28;19964;-50
2024/03/27 13:48:41;;;;;;;;;;;;;;;;;;4952107;28;19952;-50
2024/03/27 13:51:07;;;;;;;;;;;;;;;;;;4925480;29;20000;-50
2024/03/27 13:53:33;;;;;;;;;;;;;;;;;;4946288;28;19997;-51
2024/03/27 13:55:59;;;;;;;;;;;;;;;;;;4942961;29;19961;-50
2024/03/27 13:58:25;;;;;;;;;;;;;;;;;;4940891;29;19953;-50
2024/03/27 14:00:51;;;;;;;;;;;;;;;;;;4941695;29;20103;-50
2024/03/27 14:03:17;;;;;;;;;;;;;;;;;;4936431;28;19965;-50
2024/03/27 14:05:44;;;;;;;;;;;;;;;;;;4930234;28;20542;-50
2024/03/27 14:08:10;;;;;;;;;;;;;;;;;;4941345;28;19930;-50
2024/03/27 14:10:36;;;;;;;;;;;;;;;;;;4941380;29;19932;-50
2024/03/27 14:13:02;;;;;;;;;;;;;;;;;;4936774;29;19914;-50
2024/03/27 14:15:28;;;;;;;;;;;;;;;;;;4940083;29;20336;-50
2024/03/27 14:17:54;;;;;;;;;;;;;;;;;;4939960;29;19954;-51
2024/03/27 14:20:20;;;;;;;;;;;;;;;;;;4937598;28;20525;-49
2024/03/27 14:22:46;;;;;;;;;;;;;;;;;;4938987;29;20392;-50
2024/03/27 14:25:12;;;;;;;;;;;;;;;;;;4941144;29;19914;-50
2024/03/27 14:27:38;;;;;;;;;;;;;;;;;;4939900;28;19938;-50
2024/03/27 14:30:04;;;;;;;;;;;;;;;;;;4940177;28;20120;-50
2024/03/27 14:32:30;;;;;;;;;;;;;;;;;;4936674;29;20010;-50
2024/03/27 14:34:56;;;;;;;;;;;;;;;;;;4938935;28;19915;-50
2024/03/27 14:37:22;;;;;;;;;;;;;;;;;;4947774;28;20028;-50
2024/03/27 14:39:48;;;;;;;;;;;;;;;;;;4938098;28;19954;-50
2024/03/27 14:42:14;;;;;;;;;;;;;;;;;;4943321;28;19950;-50
2024/03/27 14:44:40;;;;;;;;;;;;;;;;;;4944852;28;19950;-50
2024/03/27 14:47:06;;;;;;;;;;;;;;;;;;4942212;28;20238;-50
2024/03/27 14:49:32;;;;;;;;;;;;;;;;;;4941130;28;19917;-50
2024/03/27 14:51:57;;;;;;;;;;;;;;;;;;4945738;28;20005;-51
2024/03/27 14:54:23;;;;;;;;;;;;;;;;;;4946109;28;19966;-50
2024/03/27 14:56:49;;;;;;;;;;;;;;;;;;4945297;28;19963;-50
2024/03/27 14:59:15;;;;;;;;;;;;;;;;;;4950018;28;19957;-50
2024/03/27 15:01:41;;;;;;;;;;;;;;;;;;4943716;29;19961;-50
2024/03/27 15:04:07;;;;;;;;;;;;;;;;;;4938297;29;20000;-50
2024/03/27 15:06:33;;;;;;;;;;;;;;;;;;4946530;28;20698;-50
2024/03/27 15:08:59;;;;;;;;;;;;;;;;;;4943146;28;20430;-52
2024/03/27 15:11:26;;;;;;;;;;;;;;;;;;4938227;28;20375;-52
2024/03/27 15:13:52;;;;;;;;;;;;;;;;;;4938984;29;19914;-51
2024/03/27 15:16:18;;;;;;;;;;;;;;;;;;4936435;28;19945;-50
2024/03/27 15:18:45;;;;;;;;;;;;;;;;;;4942761;29;19965;-50
2024/03/27 15:21:11;;;;;;;;;;;;;;;;;;4940264;28;19997;-50
2024/03/27 15:23:37;;;;;;;;;;;;;;;;;;4940085;28;19994;-50
2024/03/27 15:26:03;;;;;;;;;;;;;;;;;;4945494;28;20449;-50
2024/03/27 15:28:29;;;;;;;;;;;;;;;;;;4944574;28;19973;-51
2024/03/27 15:30:57;;;;;;;;;;;;;;;;;;4935811;29;19957;-50
2024/03/27 15:33:23;;;;;;;;;;;;;;;;;;4934280;29;19910;-50
2024/03/27 15:35:49;;;;;;;;;;;;;;;;;;4934880;29;19915;-50
2024/03/27 15:38:15;;;;;;;;;;;;;;;;;;4945709;29;19960;-53
2024/03/27 15:40:41;;;;;;;;;;;;;;;;;;4948987;28;20001;-53
2024/03/27 15:43:09;;;;;;;;;;;;;;;;;;4949319;28;20001;-52
2024/03/27 15:45:35;;;;;;;;;;;;;;;;;;4944716;28;20405;-52
2024/03/27 15:48:01;;;;;;;;;;;;;;;;;;4942877;29;19942;-52
2024/03/27 15:50:27;;;;;;;;;;;;;;;;;;4944981;28;19961;-52
2024/03/27 15:52:53;;;;;;;;;;;;;;;;;;4943955;29;20001;-53
2024/03/27 15:55:19;;;;;;;;;;;;;;;;;;4943923;29;19955;-52
2024/03/27 15:57:45;;;;;;;;;;;;;;;;;;4952182;29;20037;-53
2024/03/27 16:00:11;;;;;;;;;;;;;;;;;;4948627;29;19957;-52
2024/03/27 16:02:36;;;;;;;;;;;;;;;;;;4952615;29;19962;-52
2024/03/27 16:05:02;;;;;;;;;;;;;;;;;;4950716;29;19920;-52
2024/03/27 16:07:28;;;;;;;;;;;;;;;;;;4948022;29;19997;-52
2024/03/27 16:09:54;;;;;;;;;;;;;;;;;;4952919;29;19954;-51
2024/03/27 16:12:20;;;;;;;;;;;;;;;;;;4943523;29;19954;-51
2024/03/27 16:14:46;;;;;;;;;;;;;;;;;;4946722;28;19944;-51
2024/03/27 16:17:13;;;;;;;;;;;;;;;;;;4942901;29;20005;-51
2024/03/27 16:19:39;;;;;;;;;;;;;;;;;;4949119;29;19914;-53
2024/03/27 16:22:05;;;;;;;;;;;;;;;;;;4944260;29;19924;-51
2024/03/27 16:24:31;;;;;;;;;;;;;;;;;;4936881;29;19946;-52
2024/03/27 16:27:00;;;;;;;;;;;;;;;;;;4949890;29;19918;-56
2024/03/27 16:29:26;;;;;;;;;;;;;;;;;;4948145;29;19963;-56
2024/03/27 16:31:52;;;;;;;;;;;;;;;;;;4951852;28;20067;-56
2024/03/27 16:34:18;;;;;;;;;;;;;;;;;;4948295;29;19950;-57
2024/03/27 16:36:44;;;;;;;;;;;;;;;;;;4950554;29;20024;-56